sensor_id;sensor_type;location;lat;lon;timestamp;P1;durP1;ratioP1;P2;durP2;ratioP2
71391;SDS011;59205;50.610;12.638;2022-08-19T00:00:13;93.70;;;52.17;;
71391;SDS011;59205;50.610;12.638;2022-08-19T00:02:40;91.95;;;50.70;;
71391;SDS011;59205;50.610;12.638;2022-08-19T00:05:07;91.18;;;50.72;;
71391;SDS011;59205;50.610;12.638;2022-08-19T00:07:33;78.22;;;46.33;;
71391;SDS011;59205;50.610;12.638;2022-08-19T00:09:59;79.43;;;49.03;;
71391;SDS011;59205;50.610;12.638;2022-08-19T00:12:25;86.90;;;49.20;;
71391;SDS011;59205;50.610;12.638;2022-08-19T00:14:50;112.55;;;64.55;;
71391;SDS011;59205;50.610;12.638;2022-08-19T00:17:19;110.53;;;55.10;;
71391;SDS011;59205;50.610;12.638;2022-08-19T00:19:45;100.75;;;53.50;;
71391;SDS011;59205;50.610;12.638;2022-08-19T00:22:10;96.90;;;51.40;;
71391;SDS011;59205;50.610;12.638;2022-08-19T00:24:36;106.20;;;54.05;;
71391;SDS011;59205;50.610;12.638;2022-08-19T00:27:03;148.68;;;58.95;;
71391;SDS011;59205;50.610;12.638;2022-08-19T00:29:29;130.43;;;57.10;;
71391;SDS011;59205;50.610;12.638;2022-08-19T00:31:56;124.28;;;58.70;;
71391;SDS011;59205;50.610;12.638;2022-08-19T00:34:23;159.07;;;59.70;;
71391;SDS011;59205;50.610;12.638;2022-08-19T00:36:51;187.95;;;68.03;;
71391;SDS011;59205;50.610;12.638;2022-08-19T00:39:16;172.70;;;62.00;;
71391;SDS011;59205;50.610;12.638;2022-08-19T00:41:43;165.25;;;59.15;;
71391;SDS011;59205;50.610;12.638;2022-08-19T00:46:46;148.75;;;59.78;;
71391;SDS011;59205;50.610;12.638;2022-08-19T00:49:24;134.75;;;59.92;;
71391;SDS011;59205;50.610;12.638;2022-08-19T00:52:00;135.48;;;59.85;;
71391;SDS011;59205;50.610;12.638;2022-08-19T00:54:31;827.75;;;78.60;;
71391;SDS011;59205;50.610;12.638;2022-08-19T00:56:58;365.83;;;65.05;;
71391;SDS011;59205;50.610;12.638;2022-08-19T00:59:25;183.25;;;62.15;;
71391;SDS011;59205;50.610;12.638;2022-08-19T01:01:52;154.18;;;60.75;;
71391;SDS011;59205;50.610;12.638;2022-08-19T01:04:18;292.98;;;67.20;;
71391;SDS011;59205;50.610;12.638;2022-08-19T01:06:43;172.52;;;62.15;;
71391;SDS011;59205;50.610;12.638;2022-08-19T01:09:09;150.80;;;60.58;;
71391;SDS011;59205;50.610;12.638;2022-08-19T01:11:36;164.02;;;58.45;;
71391;SDS011;59205;50.610;12.638;2022-08-19T01:14:06;806.05;;;74.20;;
71391;SDS011;59205;50.610;12.638;2022-08-19T01:16:32;1212.22;;;80.45;;
71391;SDS011;59205;50.610;12.638;2022-08-19T01:18:59;411.05;;;65.43;;
71391;SDS011;59205;50.610;12.638;2022-08-19T01:23:54;969.42;;;74.70;;
71391;SDS011;59205;50.610;12.638;2022-08-19T01:26:21;685.83;;;66.78;;
71391;SDS011;59205;50.610;12.638;2022-08-19T01:28:48;342.00;;;68.32;;
71391;SDS011;59205;50.610;12.638;2022-08-19T01:31:17;192.55;;;62.95;;
71391;SDS011;59205;50.610;12.638;2022-08-19T01:33:46;242.55;;;61.90;;
71391;SDS011;59205;50.610;12.638;2022-08-19T01:36:14;241.70;;;63.70;;
71391;SDS011;59205;50.610;12.638;2022-08-19T01:38:47;218.98;;;57.38;;
71391;SDS011;59205;50.610;12.638;2022-08-19T01:41:14;353.70;;;63.33;;
71391;SDS011;59205;50.610;12.638;2022-08-19T01:43:40;141.73;;;53.63;;
71391;SDS011;59205;50.610;12.638;2022-08-19T01:46:05;196.52;;;60.45;;
71391;SDS011;59205;50.610;12.638;2022-08-19T01:48:36;207.27;;;57.05;;
71391;SDS011;59205;50.610;12.638;2022-08-19T01:51:03;144.10;;;55.33;;
71391;SDS011;59205;50.610;12.638;2022-08-19T01:53:29;147.65;;;54.83;;
71391;SDS011;59205;50.610;12.638;2022-08-19T01:55:55;491.05;;;63.10;;
71391;SDS011;59205;50.610;12.638;2022-08-19T01:58:23;163.00;;;55.60;;
71391;SDS011;59205;50.610;12.638;2022-08-19T02:00:54;988.53;;;75.07;;
71391;SDS011;59205;50.610;12.638;2022-08-19T02:03:19;241.75;;;58.75;;
71391;SDS011;59205;50.610;12.638;2022-08-19T02:05:45;520.33;;;65.47;;
71391;SDS011;59205;50.610;12.638;2022-08-19T02:08:10;133.07;;;53.85;;
71391;SDS011;59205;50.610;12.638;2022-08-19T02:10:41;120.40;;;51.80;;
71391;SDS011;59205;50.610;12.638;2022-08-19T02:13:08;114.60;;;51.22;;
71391;SDS011;59205;50.610;12.638;2022-08-19T02:15:34;109.90;;;50.85;;
71391;SDS011;59205;50.610;12.638;2022-08-19T02:17:59;97.50;;;47.90;;
71391;SDS011;59205;50.610;12.638;2022-08-19T02:20:25;97.38;;;47.78;;
71391;SDS011;59205;50.610;12.638;2022-08-19T02:22:50;80.32;;;43.42;;
71391;SDS011;59205;50.610;12.638;2022-08-19T02:25:16;85.75;;;44.65;;
71391;SDS011;59205;50.610;12.638;2022-08-19T02:27:42;94.85;;;46.42;;
71391;SDS011;59205;50.610;12.638;2022-08-19T02:30:10;93.00;;;45.83;;
71391;SDS011;59205;50.610;12.638;2022-08-19T02:32:38;98.60;;;47.63;;
71391;SDS011;59205;50.610;12.638;2022-08-19T02:35:04;106.25;;;49.10;;
71391;SDS011;59205;50.610;12.638;2022-08-19T02:37:30;117.30;;;50.80;;
71391;SDS011;59205;50.610;12.638;2022-08-19T02:40:14;107.47;;;50.83;;
71391;SDS011;59205;50.610;12.638;2022-08-19T02:42:40;102.53;;;49.03;;
71391;SDS011;59205;50.610;12.638;2022-08-19T02:45:06;101.68;;;49.50;;
71391;SDS011;59205;50.610;12.638;2022-08-19T02:47:32;100.25;;;48.03;;
71391;SDS011;59205;50.610;12.638;2022-08-19T02:50:00;102.22;;;48.20;;
71391;SDS011;59205;50.610;12.638;2022-08-19T02:52:27;93.03;;;44.83;;
71391;SDS011;59205;50.610;12.638;2022-08-19T02:54:53;86.90;;;43.63;;
71391;SDS011;59205;50.610;12.638;2022-08-19T02:57:18;109.80;;;48.58;;
71391;SDS011;59205;50.610;12.638;2022-08-19T02:59:44;108.18;;;49.17;;
71391;SDS011;59205;50.610;12.638;2022-08-19T03:02:09;114.75;;;50.17;;
71391;SDS011;59205;50.610;12.638;2022-08-19T03:04:35;119.32;;;51.03;;
71391;SDS011;59205;50.610;12.638;2022-08-19T03:07:00;114.70;;;49.80;;
71391;SDS011;59205;50.610;12.638;2022-08-19T03:09:25;101.20;;;46.72;;
71391;SDS011;59205;50.610;12.638;2022-08-19T03:11:51;101.97;;;47.67;;
71391;SDS011;59205;50.610;12.638;2022-08-19T03:14:16;96.55;;;46.28;;
71391;SDS011;59205;50.610;12.638;2022-08-19T03:16:49;93.15;;;44.90;;
71391;SDS011;59205;50.610;12.638;2022-08-19T03:19:17;103.45;;;47.33;;
71391;SDS011;59205;50.610;12.638;2022-08-19T03:21:44;100.25;;;45.83;;
71391;SDS011;59205;50.610;12.638;2022-08-19T03:24:11;102.07;;;44.55;;
71391;SDS011;59205;50.610;12.638;2022-08-19T03:26:44;115.82;;;47.38;;
71391;SDS011;59205;50.610;12.638;2022-08-19T03:29:12;111.05;;;47.20;;
71391;SDS011;59205;50.610;12.638;2022-08-19T03:31:38;111.43;;;47.45;;
71391;SDS011;59205;50.610;12.638;2022-08-19T03:34:04;128.20;;;49.28;;
71391;SDS011;59205;50.610;12.638;2022-08-19T03:36:30;117.13;;;47.60;;
71391;SDS011;59205;50.610;12.638;2022-08-19T03:38:58;124.20;;;47.63;;
71391;SDS011;59205;50.610;12.638;2022-08-19T03:41:29;128.82;;;48.92;;
71391;SDS011;59205;50.610;12.638;2022-08-19T03:43:57;133.93;;;48.38;;
71391;SDS011;59205;50.610;12.638;2022-08-19T03:46:24;138.73;;;48.85;;
71391;SDS011;59205;50.610;12.638;2022-08-19T03:48:51;159.05;;;51.95;;
71391;SDS011;59205;50.610;12.638;2022-08-19T03:51:27;147.68;;;50.70;;
71391;SDS011;59205;50.610;12.638;2022-08-19T03:53:56;211.68;;;50.65;;
71391;SDS011;59205;50.610;12.638;2022-08-19T03:56:23;274.27;;;51.53;;
71391;SDS011;59205;50.610;12.638;2022-08-19T03:58:51;173.93;;;51.70;;
71391;SDS011;59205;50.610;12.638;2022-08-19T04:01:18;228.90;;;53.30;;
71391;SDS011;59205;50.610;12.638;2022-08-19T04:03:45;225.20;;;55.67;;
71391;SDS011;59205;50.610;12.638;2022-08-19T04:06:15;447.55;;;55.60;;
71391;SDS011;59205;50.610;12.638;2022-08-19T04:08:43;457.58;;;55.15;;
71391;SDS011;59205;50.610;12.638;2022-08-19T04:11:11;278.67;;;55.03;;
71391;SDS011;59205;50.610;12.638;2022-08-19T04:13:38;248.45;;;54.70;;
71391;SDS011;59205;50.610;12.638;2022-08-19T04:16:04;445.90;;;58.45;;
71391;SDS011;59205;50.610;12.638;2022-08-19T04:18:31;326.73;;;55.30;;
71391;SDS011;59205;50.610;12.638;2022-08-19T04:20:58;197.10;;;54.35;;
71391;SDS011;59205;50.610;12.638;2022-08-19T04:23:25;319.63;;;56.70;;
71391;SDS011;59205;50.610;12.638;2022-08-19T04:25:53;499.13;;;204.52;;
71391;SDS011;59205;50.610;12.638;2022-08-19T04:28:19;316.85;;;55.90;;
71391;SDS011;59205;50.610;12.638;2022-08-19T04:30:45;282.55;;;54.28;;
71391;SDS011;59205;50.610;12.638;2022-08-19T04:33:13;190.63;;;51.40;;
71391;SDS011;59205;50.610;12.638;2022-08-19T04:35:42;192.18;;;49.35;;
71391;SDS011;59205;50.610;12.638;2022-08-19T04:38:10;148.25;;;46.08;;
71391;SDS011;59205;50.610;12.638;2022-08-19T04:40:40;104.88;;;41.15;;
71391;SDS011;59205;50.610;12.638;2022-08-19T04:43:25;100.78;;;39.40;;
71391;SDS011;59205;50.610;12.638;2022-08-19T04:45:51;86.25;;;35.88;;
71391;SDS011;59205;50.610;12.638;2022-08-19T04:48:17;75.22;;;33.83;;
71391;SDS011;59205;50.610;12.638;2022-08-19T04:50:52;76.32;;;32.67;;
71391;SDS011;59205;50.610;12.638;2022-08-19T04:53:23;67.72;;;30.33;;
71391;SDS011;59205;50.610;12.638;2022-08-19T04:55:54;60.85;;;28.23;;
71391;SDS011;59205;50.610;12.638;2022-08-19T04:58:21;64.60;;;28.23;;
71391;SDS011;59205;50.610;12.638;2022-08-19T05:00:47;76.75;;;32.22;;
71391;SDS011;59205;50.610;12.638;2022-08-19T05:03:13;91.60;;;34.75;;
71391;SDS011;59205;50.610;12.638;2022-08-19T05:05:40;84.43;;;34.08;;
71391;SDS011;59205;50.610;12.638;2022-08-19T05:08:06;78.13;;;33.13;;
71391;SDS011;59205;50.610;12.638;2022-08-19T05:10:34;79.18;;;33.55;;
71391;SDS011;59205;50.610;12.638;2022-08-19T05:13:03;94.80;;;34.72;;
71391;SDS011;59205;50.610;12.638;2022-08-19T05:15:29;77.65;;;32.75;;
71391;SDS011;59205;50.610;12.638;2022-08-19T05:17:54;70.57;;;30.95;;
71391;SDS011;59205;50.610;12.638;2022-08-19T05:20:38;62.42;;;28.45;;
71391;SDS011;59205;50.610;12.638;2022-08-19T05:23:23;82.50;;;32.40;;
71391;SDS011;59205;50.610;12.638;2022-08-19T05:25:49;78.43;;;33.03;;
71391;SDS011;59205;50.610;12.638;2022-08-19T05:28:18;76.63;;;35.10;;
71391;SDS011;59205;50.610;12.638;2022-08-19T05:30:44;78.55;;;33.83;;
71391;SDS011;59205;50.610;12.638;2022-08-19T05:33:11;91.20;;;50.10;;
71391;SDS011;59205;50.610;12.638;2022-08-19T05:35:39;71.85;;;32.75;;
71391;SDS011;59205;50.610;12.638;2022-08-19T05:38:06;68.07;;;31.50;;
71391;SDS011;59205;50.610;12.638;2022-08-19T05:40:36;61.60;;;29.40;;
71391;SDS011;59205;50.610;12.638;2022-08-19T05:43:04;57.55;;;28.35;;
71391;SDS011;59205;50.610;12.638;2022-08-19T05:45:31;52.00;;;26.35;;
71391;SDS011;59205;50.610;12.638;2022-08-19T05:47:57;48.47;;;26.05;;
71391;SDS011;59205;50.610;12.638;2022-08-19T05:50:23;42.92;;;24.40;;
71391;SDS011;59205;50.610;12.638;2022-08-19T05:52:51;38.25;;;22.77;;
71391;SDS011;59205;50.610;12.638;2022-08-19T05:55:17;41.72;;;24.02;;
71391;SDS011;59205;50.610;12.638;2022-08-19T05:57:45;87.60;;;57.00;;
71391;SDS011;59205;50.610;12.638;2022-08-19T06:00:11;141.10;;;105.82;;
71391;SDS011;59205;50.610;12.638;2022-08-19T06:02:37;43.28;;;25.10;;
71391;SDS011;59205;50.610;12.638;2022-08-19T06:05:04;35.92;;;22.27;;
71391;SDS011;59205;50.610;12.638;2022-08-19T06:07:32;37.28;;;22.70;;
71391;SDS011;59205;50.610;12.638;2022-08-19T06:09:57;32.22;;;20.20;;
71391;SDS011;59205;50.610;12.638;2022-08-19T06:12:23;31.77;;;20.35;;
71391;SDS011;59205;50.610;12.638;2022-08-19T06:14:53;31.50;;;20.05;;
71391;SDS011;59205;50.610;12.638;2022-08-19T06:17:19;28.20;;;19.13;;
71391;SDS011;59205;50.610;12.638;2022-08-19T06:19:46;29.15;;;18.88;;
71391;SDS011;59205;50.610;12.638;2022-08-19T06:22:11;31.98;;;20.10;;
71391;SDS011;59205;50.610;12.638;2022-08-19T06:24:38;31.05;;;20.10;;
71391;SDS011;59205;50.610;12.638;2022-08-19T06:27:03;30.80;;;20.02;;
71391;SDS011;59205;50.610;12.638;2022-08-19T06:29:30;31.90;;;20.20;;
71391;SDS011;59205;50.610;12.638;2022-08-19T06:31:57;32.08;;;20.77;;
71391;SDS011;59205;50.610;12.638;2022-08-19T06:34:24;31.45;;;20.95;;
71391;SDS011;59205;50.610;12.638;2022-08-19T06:36:52;33.15;;;20.88;;
71391;SDS011;59205;50.610;12.638;2022-08-19T06:39:25;36.95;;;22.58;;
71391;SDS011;59205;50.610;12.638;2022-08-19T06:41:54;39.00;;;24.08;;
71391;SDS011;59205;50.610;12.638;2022-08-19T06:44:22;36.50;;;22.20;;
71391;SDS011;59205;50.610;12.638;2022-08-19T06:46:50;35.92;;;22.77;;
71391;SDS011;59205;50.610;12.638;2022-08-19T06:49:16;37.53;;;23.02;;
71391;SDS011;59205;50.610;12.638;2022-08-19T06:51:43;192.32;;;127.15;;
71391;SDS011;59205;50.610;12.638;2022-08-19T06:54:12;48.72;;;25.83;;
71391;SDS011;59205;50.610;12.638;2022-08-19T06:56:39;42.35;;;24.33;;
71391;SDS011;59205;50.610;12.638;2022-08-19T06:59:08;42.75;;;25.27;;
71391;SDS011;59205;50.610;12.638;2022-08-19T07:01:40;46.58;;;27.13;;
71391;SDS011;59205;50.610;12.638;2022-08-19T07:04:11;47.00;;;26.25;;
71391;SDS011;59205;50.610;12.638;2022-08-19T07:06:39;42.78;;;25.08;;
71391;SDS011;59205;50.610;12.638;2022-08-19T07:09:05;39.58;;;23.80;;
71391;SDS011;59205;50.610;12.638;2022-08-19T07:11:34;44.83;;;25.10;;
71391;SDS011;59205;50.610;12.638;2022-08-19T07:14:00;44.45;;;26.48;;
71391;SDS011;59205;50.610;12.638;2022-08-19T07:16:26;40.72;;;23.20;;
71391;SDS011;59205;50.610;12.638;2022-08-19T07:18:52;43.42;;;24.90;;
71391;SDS011;59205;50.610;12.638;2022-08-19T07:21:20;46.45;;;25.80;;
71391;SDS011;59205;50.610;12.638;2022-08-19T07:23:49;44.85;;;25.50;;
71391;SDS011;59205;50.610;12.638;2022-08-19T07:26:24;51.55;;;27.15;;
71391;SDS011;59205;50.610;12.638;2022-08-19T07:28:53;111.10;;;70.00;;
71391;SDS011;59205;50.610;12.638;2022-08-19T07:31:23;58.20;;;29.77;;
71391;SDS011;59205;50.610;12.638;2022-08-19T07:33:51;54.17;;;29.05;;
71391;SDS011;59205;50.610;12.638;2022-08-19T07:36:20;63.85;;;31.23;;
71391;SDS011;59205;50.610;12.638;2022-08-19T07:38:48;64.78;;;31.15;;
71391;SDS011;59205;50.610;12.638;2022-08-19T07:41:21;56.97;;;28.63;;
71391;SDS011;59205;50.610;12.638;2022-08-19T07:43:48;58.33;;;30.27;;
71391;SDS011;59205;50.610;12.638;2022-08-19T07:46:14;50.80;;;26.98;;
71391;SDS011;59205;50.610;12.638;2022-08-19T07:48:42;47.55;;;26.80;;
71391;SDS011;59205;50.610;12.638;2022-08-19T07:53:37;50.92;;;27.45;;
71391;SDS011;59205;50.610;12.638;2022-08-19T07:56:03;46.67;;;27.20;;
71391;SDS011;59205;50.610;12.638;2022-08-19T07:58:31;44.15;;;25.65;;
71391;SDS011;59205;50.610;12.638;2022-08-19T08:00:59;36.53;;;22.98;;
71391;SDS011;59205;50.610;12.638;2022-08-19T08:03:25;38.20;;;23.23;;
71391;SDS011;59205;50.610;12.638;2022-08-19T08:06:10;35.20;;;21.17;;
71391;SDS011;59205;50.610;12.638;2022-08-19T08:08:55;29.00;;;18.92;;
71391;SDS011;59205;50.610;12.638;2022-08-19T08:11:40;27.52;;;19.05;;
71391;SDS011;59205;50.610;12.638;2022-08-19T08:14:17;121.00;;;94.28;;
71391;SDS011;59205;50.610;12.638;2022-08-19T08:16:45;20.70;;;15.02;;
71391;SDS011;59205;50.610;12.638;2022-08-19T08:19:11;19.90;;;14.90;;
71391;SDS011;59205;50.610;12.638;2022-08-19T08:21:39;18.67;;;13.83;;
71391;SDS011;59205;50.610;12.638;2022-08-19T08:24:05;17.83;;;12.75;;
71391;SDS011;59205;50.610;12.638;2022-08-19T08:26:31;13.65;;;10.35;;
71391;SDS011;59205;50.610;12.638;2022-08-19T08:28:56;13.63;;;10.63;;
71391;SDS011;59205;50.610;12.638;2022-08-19T08:31:22;15.90;;;11.93;;
71391;SDS011;59205;50.610;12.638;2022-08-19T08:33:48;15.63;;;11.32;;
71391;SDS011;59205;50.610;12.638;2022-08-19T08:36:13;18.40;;;13.32;;
71391;SDS011;59205;50.610;12.638;2022-08-19T08:38:39;18.88;;;13.18;;
71391;SDS011;59205;50.610;12.638;2022-08-19T08:43:53;29.23;;;17.75;;
71391;SDS011;59205;50.610;12.638;2022-08-19T08:46:37;30.02;;;17.42;;
71391;SDS011;59205;50.610;12.638;2022-08-19T08:52:25;22.55;;;14.02;;
71391;SDS011;59205;50.610;12.638;2022-08-19T08:54:54;21.05;;;14.20;;
71391;SDS011;59205;50.610;12.638;2022-08-19T08:57:30;23.03;;;15.00;;
71391;SDS011;59205;50.610;12.638;2022-08-19T09:00:15;27.98;;;17.80;;
71391;SDS011;59205;50.610;12.638;2022-08-19T09:02:44;32.15;;;20.05;;
71391;SDS011;59205;50.610;12.638;2022-08-19T09:05:10;36.03;;;22.52;;
71391;SDS011;59205;50.610;12.638;2022-08-19T09:15:18;43.05;;;25.60;;
71391;SDS011;59205;50.610;12.638;2022-08-19T09:17:52;53.15;;;30.30;;
71391;SDS011;59205;50.610;12.638;2022-08-19T09:20:19;63.08;;;34.03;;
71391;SDS011;59205;50.610;12.638;2022-08-19T09:22:47;71.70;;;38.07;;
71391;SDS011;59205;50.610;12.638;2022-08-19T09:25:15;76.30;;;39.40;;
71391;SDS011;59205;50.610;12.638;2022-08-19T09:27:42;93.57;;;44.03;;
71391;SDS011;59205;50.610;12.638;2022-08-19T09:30:10;107.60;;;49.03;;
71391;SDS011;59205;50.610;12.638;2022-08-19T09:32:40;158.40;;;54.05;;
71391;SDS011;59205;50.610;12.638;2022-08-19T09:35:07;110.30;;;52.28;;
71391;SDS011;59205;50.610;12.638;2022-08-19T09:37:33;131.50;;;54.53;;
71391;SDS011;59205;50.610;12.638;2022-08-19T09:39:59;110.75;;;50.65;;
71391;SDS011;59205;50.610;12.638;2022-08-19T09:42:24;113.50;;;51.40;;
71391;SDS011;59205;50.610;12.638;2022-08-19T09:44:50;132.85;;;52.35;;
71391;SDS011;59205;50.610;12.638;2022-08-19T09:47:15;99.47;;;49.35;;
71391;SDS011;59205;50.610;12.638;2022-08-19T09:49:41;116.80;;;51.80;;
71391;SDS011;59205;50.610;12.638;2022-08-19T09:52:09;111.55;;;51.53;;
71391;SDS011;59205;50.610;12.638;2022-08-19T09:54:36;133.45;;;57.28;;
71391;SDS011;59205;50.610;12.638;2022-08-19T09:57:02;130.73;;;56.88;;
71391;SDS011;59205;50.610;12.638;2022-08-19T09:59:28;146.88;;;61.58;;
71391;SDS011;59205;50.610;12.638;2022-08-19T10:01:54;152.27;;;61.20;;
71391;SDS011;59205;50.610;12.638;2022-08-19T10:04:20;140.43;;;62.45;;
71391;SDS011;59205;50.610;12.638;2022-08-19T10:06:46;153.07;;;63.08;;
71391;SDS011;59205;50.610;12.638;2022-08-19T10:09:14;138.00;;;62.08;;
71391;SDS011;59205;50.610;12.638;2022-08-19T10:11:41;128.45;;;59.78;;
71391;SDS011;59205;50.610;12.638;2022-08-19T10:14:08;130.57;;;61.78;;
71391;SDS011;59205;50.610;12.638;2022-08-19T10:16:36;133.82;;;61.17;;
71391;SDS011;59205;50.610;12.638;2022-08-19T10:19:02;127.15;;;59.83;;
71391;SDS011;59205;50.610;12.638;2022-08-19T10:21:29;120.07;;;57.58;;
71391;SDS011;59205;50.610;12.638;2022-08-19T10:23:57;119.97;;;59.15;;
71391;SDS011;59205;50.610;12.638;2022-08-19T10:26:28;146.48;;;64.07;;
71391;SDS011;59205;50.610;12.638;2022-08-19T10:28:56;152.65;;;65.82;;
71391;SDS011;59205;50.610;12.638;2022-08-19T10:31:25;162.43;;;67.10;;
71391;SDS011;59205;50.610;12.638;2022-08-19T10:33:52;155.60;;;64.32;;
71391;SDS011;59205;50.610;12.638;2022-08-19T10:36:23;157.65;;;65.85;;
71391;SDS011;59205;50.610;12.638;2022-08-19T10:38:51;164.43;;;66.13;;
71391;SDS011;59205;50.610;12.638;2022-08-19T10:41:21;162.02;;;66.13;;
71391;SDS011;59205;50.610;12.638;2022-08-19T10:43:50;168.90;;;66.85;;
71391;SDS011;59205;50.610;12.638;2022-08-19T10:46:17;151.70;;;63.53;;
71391;SDS011;59205;50.610;12.638;2022-08-19T10:48:43;142.27;;;61.17;;
71391;SDS011;59205;50.610;12.638;2022-08-19T10:51:10;142.90;;;60.90;;
71391;SDS011;59205;50.610;12.638;2022-08-19T10:53:55;140.27;;;61.05;;
71391;SDS011;59205;50.610;12.638;2022-08-19T10:56:21;123.50;;;57.30;;
71391;SDS011;59205;50.610;12.638;2022-08-19T10:59:05;127.10;;;57.75;;
71391;SDS011;59205;50.610;12.638;2022-08-19T11:01:32;143.48;;;59.90;;
71391;SDS011;59205;50.610;12.638;2022-08-19T11:04:03;126.97;;;58.67;;
71391;SDS011;59205;50.610;12.638;2022-08-19T11:06:32;121.75;;;58.30;;
71391;SDS011;59205;50.610;12.638;2022-08-19T11:08:58;112.80;;;55.58;;
71391;SDS011;59205;50.610;12.638;2022-08-19T11:11:25;113.95;;;54.92;;
71391;SDS011;59205;50.610;12.638;2022-08-19T11:13:51;114.85;;;53.65;;
71391;SDS011;59205;50.610;12.638;2022-08-19T11:16:22;123.82;;;53.55;;
71391;SDS011;59205;50.610;12.638;2022-08-19T11:18:50;130.68;;;55.38;;
71391;SDS011;59205;50.610;12.638;2022-08-19T11:21:22;177.88;;;56.08;;
71391;SDS011;59205;50.610;12.638;2022-08-19T11:23:50;158.55;;;55.95;;
71391;SDS011;59205;50.610;12.638;2022-08-19T11:26:17;397.50;;;62.40;;
71391;SDS011;59205;50.610;12.638;2022-08-19T11:28:45;325.42;;;58.60;;
71391;SDS011;59205;50.610;12.638;2022-08-19T11:31:15;225.35;;;59.28;;
71391;SDS011;59205;50.610;12.638;2022-08-19T11:33:42;442.77;;;62.83;;
71391;SDS011;59205;50.610;12.638;2022-08-19T11:36:09;295.63;;;58.45;;
71391;SDS011;59205;50.610;12.638;2022-08-19T11:38:35;396.80;;;60.63;;
71391;SDS011;59205;50.610;12.638;2022-08-19T11:41:02;310.55;;;55.55;;
71391;SDS011;59205;50.610;12.638;2022-08-19T11:43:31;256.58;;;56.88;;
71391;SDS011;59205;50.610;12.638;2022-08-19T11:45:57;150.65;;;51.22;;
71391;SDS011;59205;50.610;12.638;2022-08-19T11:48:23;162.45;;;48.35;;
71391;SDS011;59205;50.610;12.638;2022-08-19T11:50:49;112.30;;;40.65;;
71391;SDS011;59205;50.610;12.638;2022-08-19T11:53:16;88.28;;;35.03;;
71391;SDS011;59205;50.610;12.638;2022-08-19T11:55:44;62.42;;;27.17;;
71391;SDS011;59205;50.610;12.638;2022-08-19T11:58:10;64.78;;;28.83;;
71391;SDS011;59205;50.610;12.638;2022-08-19T12:00:37;68.88;;;32.65;;
71391;SDS011;59205;50.610;12.638;2022-08-19T12:03:04;76.93;;;35.67;;
71391;SDS011;59205;50.610;12.638;2022-08-19T12:05:29;82.43;;;40.13;;
71391;SDS011;59205;50.610;12.638;2022-08-19T12:07:55;82.53;;;40.88;;
71391;SDS011;59205;50.610;12.638;2022-08-19T12:10:21;126.20;;;46.15;;
71391;SDS011;59205;50.610;12.638;2022-08-19T12:12:47;95.20;;;44.90;;
71391;SDS011;59205;50.610;12.638;2022-08-19T12:15:13;95.65;;;45.75;;
71391;SDS011;59205;50.610;12.638;2022-08-19T12:17:39;104.68;;;42.92;;
71391;SDS011;59205;50.610;12.638;2022-08-19T12:20:07;136.68;;;46.92;;
71391;SDS011;59205;50.610;12.638;2022-08-19T12:22:38;114.47;;;45.90;;
71391;SDS011;59205;50.610;12.638;2022-08-19T12:25:06;178.27;;;47.78;;
71391;SDS011;59205;50.610;12.638;2022-08-19T12:27:33;144.18;;;53.05;;
71391;SDS011;59205;50.610;12.638;2022-08-19T12:30:00;228.90;;;50.45;;
71391;SDS011;59205;50.610;12.638;2022-08-19T12:32:27;136.13;;;48.05;;
71391;SDS011;59205;50.610;12.638;2022-08-19T12:34:53;139.07;;;48.15;;
71391;SDS011;59205;50.610;12.638;2022-08-19T12:37:19;135.63;;;49.20;;
71391;SDS011;59205;50.610;12.638;2022-08-19T12:39:45;434.45;;;54.58;;
71391;SDS011;59205;50.610;12.638;2022-08-19T12:42:11;178.73;;;51.95;;
71391;SDS011;59205;50.610;12.638;2022-08-19T12:44:38;326.08;;;54.17;;
71391;SDS011;59205;50.610;12.638;2022-08-19T12:47:06;143.07;;;53.20;;
71391;SDS011;59205;50.610;12.638;2022-08-19T12:49:32;320.55;;;56.47;;
71391;SDS011;59205;50.610;12.638;2022-08-19T12:52:02;205.88;;;55.17;;
71391;SDS011;59205;50.610;12.638;2022-08-19T12:54:29;481.10;;;65.63;;
71391;SDS011;59205;50.610;12.638;2022-08-19T12:56:55;188.52;;;58.25;;
71391;SDS011;59205;50.610;12.638;2022-08-19T12:59:21;241.20;;;59.60;;
71391;SDS011;59205;50.610;12.638;2022-08-19T13:01:47;347.83;;;62.60;;
71391;SDS011;59205;50.610;12.638;2022-08-19T13:04:12;271.80;;;93.70;;
71391;SDS011;59205;50.610;12.638;2022-08-19T13:06:38;462.98;;;71.45;;
71391;SDS011;59205;50.610;12.638;2022-08-19T13:09:04;395.65;;;67.97;;
71391;SDS011;59205;50.610;12.638;2022-08-19T13:11:30;230.50;;;62.45;;
71391;SDS011;59205;50.610;12.638;2022-08-19T13:13:58;343.60;;;67.20;;
71391;SDS011;59205;50.610;12.638;2022-08-19T13:16:25;347.95;;;64.78;;
71391;SDS011;59205;50.610;12.638;2022-08-19T13:18:52;219.77;;;62.05;;
71391;SDS011;59205;50.610;12.638;2022-08-19T13:21:19;253.57;;;66.53;;
71391;SDS011;59205;50.610;12.638;2022-08-19T13:23:47;195.73;;;63.50;;
71391;SDS011;59205;50.610;12.638;2022-08-19T13:26:14;312.73;;;67.88;;
71391;SDS011;59205;50.610;12.638;2022-08-19T13:28:40;220.07;;;64.97;;
71391;SDS011;59205;50.610;12.638;2022-08-19T13:31:26;176.27;;;61.10;;
71391;SDS011;59205;50.610;12.638;2022-08-19T13:34:12;175.32;;;59.17;;
71391;SDS011;59205;50.610;12.638;2022-08-19T13:36:38;164.65;;;59.20;;
71391;SDS011;59205;50.610;12.638;2022-08-19T13:39:05;162.95;;;57.53;;
71391;SDS011;59205;50.610;12.638;2022-08-19T13:41:33;181.30;;;82.13;;
71391;SDS011;59205;50.610;12.638;2022-08-19T13:43:59;146.40;;;54.03;;
71391;SDS011;59205;50.610;12.638;2022-08-19T13:46:25;144.38;;;52.35;;
71391;SDS011;59205;50.610;12.638;2022-08-19T13:48:52;128.57;;;51.72;;
71391;SDS011;59205;50.610;12.638;2022-08-19T13:51:17;126.47;;;51.65;;
71391;SDS011;59205;50.610;12.638;2022-08-19T13:53:43;148.32;;;54.63;;
71391;SDS011;59205;50.610;12.638;2022-08-19T13:56:11;142.68;;;53.78;;
71391;SDS011;59205;50.610;12.638;2022-08-19T13:58:38;143.88;;;54.10;;
71391;SDS011;59205;50.610;12.638;2022-08-19T14:01:04;149.05;;;55.92;;
71391;SDS011;59205;50.610;12.638;2022-08-19T14:03:31;159.82;;;55.70;;
71391;SDS011;59205;50.610;12.638;2022-08-19T14:05:58;147.65;;;56.42;;
71391;SDS011;59205;50.610;12.638;2022-08-19T14:08:24;140.57;;;55.05;;
71391;SDS011;59205;50.610;12.638;2022-08-19T14:10:49;141.00;;;54.30;;
71391;SDS011;59205;50.610;12.638;2022-08-19T14:13:16;138.63;;;53.20;;
71391;SDS011;59205;50.610;12.638;2022-08-19T14:15:44;138.45;;;53.25;;
71391;SDS011;59205;50.610;12.638;2022-08-19T14:18:10;155.32;;;55.83;;
71391;SDS011;59205;50.610;12.638;2022-08-19T14:20:36;175.60;;;60.45;;
71391;SDS011;59205;50.610;12.638;2022-08-19T14:23:02;172.98;;;59.80;;
71391;SDS011;59205;50.610;12.638;2022-08-19T14:25:30;169.57;;;58.97;;